sensor_id;sensor_type;location;lat;lon;timestamp;temperature;humidity
12833;DHT22;6483;51.310;4.462;2023-06-24T00:02:23;15.40;99.90
12833;DHT22;6483;51.310;4.462;2023-06-24T00:04:52;15.30;99.90
12833;DHT22;6483;51.310;4.462;2023-06-24T00:07:18;15.20;99.90
12833;DHT22;6483;51.310;4.462;2023-06-24T00:09:47;15.20;99.90
12833;DHT22;6483;51.310;4.462;2023-06-24T00:12:14;15.10;99.90
12833;DHT22;6483;51.310;4.462;2023-06-24T00:14:45;15.00;99.90
12833;DHT22;6483;51.310;4.462;2023-06-24T00:17:12;15.00;99.90
12833;DHT22;6483;51.310;4.462;2023-06-24T00:19:38;15.20;99.90
12833;DHT22;6483;51.310;4.462;2023-06-24T00:22:07;15.20;99.90
12833;DHT22;6483;51.310;4.462;2023-06-24T00:24:33;15.10;99.90
12833;DHT22;6483;51.310;4.462;2023-06-24T00:26:59;15.00;99.90
12833;DHT22;6483;51.310;4.462;2023-06-24T00:29:27;14.90;99.90
12833;DHT22;6483;51.310;4.462;2023-06-24T00:31:54;14.80;99.90
12833;DHT22;6483;51.310;4.462;2023-06-24T00:34:19;14.80;99.90
12833;DHT22;6483;51.310;4.462;2023-06-24T00:36:48;14.70;99.90
12833;DHT22;6483;51.310;4.462;2023-06-24T00:39:16;14.70;99.90
12833;DHT22;6483;51.310;4.462;2023-06-24T00:41:45;14.70;99.90
12833;DHT22;6483;51.310;4.462;2023-06-24T00:44:12;14.60;99.90
12833;DHT22;6483;51.310;4.462;2023-06-24T00:46:40;14.60;99.90
12833;DHT22;6483;51.310;4.462;2023-06-24T00:49:06;14.50;99.90
12833;DHT22;6483;51.310;4.462;2023-06-24T00:51:32;14.50;99.90
12833;DHT22;6483;51.310;4.462;2023-06-24T00:54:01;14.50;99.90
12833;DHT22;6483;51.310;4.462;2023-06-24T00:56:31;14.50;99.90
12833;DHT22;6483;51.310;4.462;2023-06-24T00:59:02;14.40;99.90
12833;DHT22;6483;51.310;4.462;2023-06-24T01:01:36;14.50;99.90
12833;DHT22;6483;51.310;4.462;2023-06-24T01:04:02;14.50;99.90
12833;DHT22;6483;51.310;4.462;2023-06-24T01:06:32;14.40;99.90
12833;DHT22;6483;51.310;4.462;2023-06-24T01:08:58;14.30;99.90
12833;DHT22;6483;51.310;4.462;2023-06-24T01:11:26;15.50;99.90
12833;DHT22;6483;51.310;4.462;2023-06-24T01:13:54;14.20;99.90
12833;DHT22;6483;51.310;4.462;2023-06-24T01:19:37;14.20;99.90
12833;DHT22;6483;51.310;4.462;2023-06-24T01:31:47;14.00;99.90
12833;DHT22;6483;51.310;4.462;2023-06-24T01:39:50;13.90;99.90
12833;DHT22;6483;51.310;4.462;2023-06-24T01:42:21;13.90;99.90
12833;DHT22;6483;51.310;4.462;2023-06-24T01:44:51;13.90;99.90
12833;DHT22;6483;51.310;4.462;2023-06-24T01:47:24;13.80;99.90
12833;DHT22;6483;51.310;4.462;2023-06-24T01:49:58;13.80;99.90
12833;DHT22;6483;51.310;4.462;2023-06-24T01:52:30;13.70;99.90
12833;DHT22;6483;51.310;4.462;2023-06-24T01:55:00;13.70;99.90
12833;DHT22;6483;51.310;4.462;2023-06-24T01:57:27;13.70;99.90
12833;DHT22;6483;51.310;4.462;2023-06-24T01:59:54;13.70;99.90
12833;DHT22;6483;51.310;4.462;2023-06-24T02:02:24;13.70;99.90
12833;DHT22;6483;51.310;4.462;2023-06-24T02:04:52;13.70;99.90
12833;DHT22;6483;51.310;4.462;2023-06-24T02:07:20;13.60;99.90
12833;DHT22;6483;51.310;4.462;2023-06-24T02:09:46;13.70;99.90
12833;DHT22;6483;51.310;4.462;2023-06-24T02:12:15;13.80;99.90
12833;DHT22;6483;51.310;4.462;2023-06-24T02:14:48;13.80;99.90
12833;DHT22;6483;51.310;4.462;2023-06-24T02:17:14;13.80;99.90
12833;DHT22;6483;51.310;4.462;2023-06-24T02:19:41;13.70;99.90
12833;DHT22;6483;51.310;4.462;2023-06-24T02:22:08;13.60;99.90
12833;DHT22;6483;51.310;4.462;2023-06-24T02:24:37;13.60;99.90
12833;DHT22;6483;51.310;4.462;2023-06-24T02:27:05;13.50;99.90
12833;DHT22;6483;51.310;4.462;2023-06-24T02:29:36;13.60;99.90
12833;DHT22;6483;51.310;4.462;2023-06-24T02:32:03;13.50;99.90
12833;DHT22;6483;51.310;4.462;2023-06-24T02:34:33;13.40;99.90
12833;DHT22;6483;51.310;4.462;2023-06-24T02:37:02;13.40;99.90
12833;DHT22;6483;51.310;4.462;2023-06-24T02:39:27;13.30;99.90
12833;DHT22;6483;51.310;4.462;2023-06-24T02:41:53;13.30;99.90
12833;DHT22;6483;51.310;4.462;2023-06-24T02:44:22;13.40;99.90
12833;DHT22;6483;51.310;4.462;2023-06-24T02:46:49;13.30;99.90
12833;DHT22;6483;51.310;4.462;2023-06-24T02:49:20;13.20;99.90
12833;DHT22;6483;51.310;4.462;2023-06-24T02:51:46;13.20;99.90
12833;DHT22;6483;51.310;4.462;2023-06-24T02:54:12;13.20;99.90
12833;DHT22;6483;51.310;4.462;2023-06-24T02:56:39;13.20;99.90
12833;DHT22;6483;51.310;4.462;2023-06-24T02:59:07;13.20;99.90
12833;DHT22;6483;51.310;4.462;2023-06-24T03:01:36;13.20;99.90
12833;DHT22;6483;51.310;4.462;2023-06-24T03:04:04;13.10;99.90
12833;DHT22;6483;51.310;4.462;2023-06-24T03:06:33;13.00;99.90
12833;DHT22;6483;51.310;4.462;2023-06-24T03:09:05;13.00;99.90
12833;DHT22;6483;51.310;4.462;2023-06-24T03:11:46;13.00;99.90
12833;DHT22;6483;51.310;4.462;2023-06-24T03:14:11;13.00;99.90
12833;DHT22;6483;51.310;4.462;2023-06-24T03:16:43;13.00;99.90
12833;DHT22;6483;51.310;4.462;2023-06-24T03:19:08;12.90;99.90
12833;DHT22;6483;51.310;4.462;2023-06-24T03:21:37;12.90;99.90
12833;DHT22;6483;51.310;4.462;2023-06-24T03:24:04;12.90;99.90
12833;DHT22;6483;51.310;4.462;2023-06-24T03:26:38;12.90;99.90
12833;DHT22;6483;51.310;4.462;2023-06-24T03:29:09;12.90;99.90
12833;DHT22;6483;51.310;4.462;2023-06-24T03:31:34;12.80;99.90
12833;DHT22;6483;51.310;4.462;2023-06-24T03:34:00;12.80;99.90
12833;DHT22;6483;51.310;4.462;2023-06-24T03:36:29;12.80;99.90
12833;DHT22;6483;51.310;4.462;2023-06-24T03:38:55;12.80;99.90
12833;DHT22;6483;51.310;4.462;2023-06-24T03:41:21;12.90;99.90
12833;DHT22;6483;51.310;4.462;2023-06-24T03:43:46;12.90;99.90
12833;DHT22;6483;51.310;4.462;2023-06-24T03:46:15;12.90;99.90
12833;DHT22;6483;51.310;4.462;2023-06-24T03:48:44;12.90;99.90
12833;DHT22;6483;51.310;4.462;2023-06-24T03:51:12;12.80;99.90
12833;DHT22;6483;51.310;4.462;2023-06-24T03:53:38;12.90;99.90
12833;DHT22;6483;51.310;4.462;2023-06-24T03:56:04;12.90;99.90
12833;DHT22;6483;51.310;4.462;2023-06-24T03:58:30;13.10;99.90
12833;DHT22;6483;51.310;4.462;2023-06-24T04:00:59;13.10;99.90
12833;DHT22;6483;51.310;4.462;2023-06-24T04:03:25;13.10;99.90
12833;DHT22;6483;51.310;4.462;2023-06-24T04:05:57;13.00;99.90
12833;DHT22;6483;51.310;4.462;2023-06-24T04:08:23;13.00;99.90
12833;DHT22;6483;51.310;4.462;2023-06-24T04:10:58;13.00;99.90
12833;DHT22;6483;51.310;4.462;2023-06-24T04:13:29;13.00;99.90
12833;DHT22;6483;51.310;4.462;2023-06-24T04:15:55;13.00;99.90
12833;DHT22;6483;51.310;4.462;2023-06-24T04:18:21;13.00;99.90
12833;DHT22;6483;51.310;4.462;2023-06-24T04:20:47;13.00;99.90
12833;DHT22;6483;51.310;4.462;2023-06-24T04:23:12;13.10;99.90
12833;DHT22;6483;51.310;4.462;2023-06-24T04:25:42;13.20;99.90
12833;DHT22;6483;51.310;4.462;2023-06-24T04:28:08;13.10;99.90
12833;DHT22;6483;51.310;4.462;2023-06-24T04:30:58;13.20;99.90
12833;DHT22;6483;51.310;4.462;2023-06-24T04:33:23;13.20;99.90
12833;DHT22;6483;51.310;4.462;2023-06-24T04:35:53;13.30;99.90
12833;DHT22;6483;51.310;4.462;2023-06-24T04:38:19;13.40;99.90
12833;DHT22;6483;51.310;4.462;2023-06-24T04:40:48;13.40;99.90
12833;DHT22;6483;51.310;4.462;2023-06-24T04:43:14;13.40;99.90
12833;DHT22;6483;51.310;4.462;2023-06-24T04:45:40;13.50;99.90
12833;DHT22;6483;51.310;4.462;2023-06-24T04:48:06;13.60;99.90
12833;DHT22;6483;51.310;4.462;2023-06-24T04:50:32;13.60;99.90
12833;DHT22;6483;51.310;4.462;2023-06-24T04:52:58;13.70;99.90
12833;DHT22;6483;51.310;4.462;2023-06-24T04:55:23;13.80;99.90
12833;DHT22;6483;51.310;4.462;2023-06-24T04:57:52;13.90;99.90
12833;DHT22;6483;51.310;4.462;2023-06-24T05:00:18;14.10;99.90
12833;DHT22;6483;51.310;4.462;2023-06-24T05:02:48;14.30;99.90
12833;DHT22;6483;51.310;4.462;2023-06-24T05:05:33;14.60;99.90
12833;DHT22;6483;51.310;4.462;2023-06-24T05:08:01;14.80;99.90
12833;DHT22;6483;51.310;4.462;2023-06-24T05:10:27;14.90;99.90
12833;DHT22;6483;51.310;4.462;2023-06-24T05:12:53;15.00;99.90
12833;DHT22;6483;51.310;4.462;2023-06-24T05:15:18;15.00;99.90
12833;DHT22;6483;51.310;4.462;2023-06-24T05:17:44;15.00;99.90
12833;DHT22;6483;51.310;4.462;2023-06-24T05:20:10;15.10;99.90
12833;DHT22;6483;51.310;4.462;2023-06-24T05:22:36;15.20;99.90
12833;DHT22;6483;51.310;4.462;2023-06-24T05:25:02;15.30;99.90
12833;DHT22;6483;51.310;4.462;2023-06-24T05:27:28;15.40;99.90
12833;DHT22;6483;51.310;4.462;2023-06-24T05:29:54;15.60;99.90
12833;DHT22;6483;51.310;4.462;2023-06-24T05:32:19;15.80;99.90
12833;DHT22;6483;51.310;4.462;2023-06-24T05:34:46;16.10;99.90
12833;DHT22;6483;51.310;4.462;2023-06-24T05:37:14;16.30;99.90
12833;DHT22;6483;51.310;4.462;2023-06-24T05:39:40;16.50;99.90
12833;DHT22;6483;51.310;4.462;2023-06-24T05:42:08;16.80;99.90
12833;DHT22;6483;51.310;4.462;2023-06-24T05:44:34;17.00;99.90
12833;DHT22;6483;51.310;4.462;2023-06-24T05:47:00;17.10;99.90
12833;DHT22;6483;51.310;4.462;2023-06-24T05:49:25;17.20;99.90
12833;DHT22;6483;51.310;4.462;2023-06-24T05:51:51;17.40;99.90
12833;DHT22;6483;51.310;4.462;2023-06-24T05:54:17;17.60;99.90
12833;DHT22;6483;51.310;4.462;2023-06-24T05:56:45;17.70;99.90
12833;DHT22;6483;51.310;4.462;2023-06-24T05:59:11;17.90;99.90
12833;DHT22;6483;51.310;4.462;2023-06-24T06:01:36;18.20;99.90
12833;DHT22;6483;51.310;4.462;2023-06-24T06:04:05;18.30;6.60
12833;DHT22;6483;51.310;4.462;2023-06-24T06:06:33;18.30;79.80
12833;DHT22;6483;51.310;4.462;2023-06-24T06:08:59;18.40;51.00
12833;DHT22;6483;51.310;4.462;2023-06-24T06:11:25;18.40;11.30
12833;DHT22;6483;51.310;4.462;2023-06-24T06:13:50;18.50;25.80
12833;DHT22;6483;51.310;4.462;2023-06-24T06:16:17;18.50;42.30
12833;DHT22;6483;51.310;4.462;2023-06-24T06:18:43;18.60;1.00
12833;DHT22;6483;51.310;4.462;2023-06-24T06:21:09;18.60;1.00
12833;DHT22;6483;51.310;4.462;2023-06-24T06:23:34;18.60;1.00
12833;DHT22;6483;51.310;4.462;2023-06-24T06:26:03;18.70;1.00
12833;DHT22;6483;51.310;4.462;2023-06-24T06:28:29;18.70;56.70
12833;DHT22;6483;51.310;4.462;2023-06-24T06:30:58;18.80;59.60
12833;DHT22;6483;51.310;4.462;2023-06-24T06:33:24;18.90;19.50
12833;DHT22;6483;51.310;4.462;2023-06-24T06:35:50;18.90;1.00
12833;DHT22;6483;51.310;4.462;2023-06-24T06:38:15;18.90;1.00
12833;DHT22;6483;51.310;4.462;2023-06-24T06:40:41;18.90;1.00
12833;DHT22;6483;51.310;4.462;2023-06-24T06:43:08;18.90;1.00
12833;DHT22;6483;51.310;4.462;2023-06-24T06:45:33;19.00;39.80
12833;DHT22;6483;51.310;4.462;2023-06-24T06:47:59;19.10;57.00
12833;DHT22;6483;51.310;4.462;2023-06-24T06:50:28;19.30;1.00
12833;DHT22;6483;51.310;4.462;2023-06-24T06:52:54;19.40;1.00
12833;DHT22;6483;51.310;4.462;2023-06-24T06:55:20;19.60;1.00
12833;DHT22;6483;51.310;4.462;2023-06-24T06:57:46;19.70;1.00
12833;DHT22;6483;51.310;4.462;2023-06-24T07:00:12;19.60;1.00
12833;DHT22;6483;51.310;4.462;2023-06-24T07:02:38;19.70;1.00
12833;DHT22;6483;51.310;4.462;2023-06-24T07:05:10;19.80;1.00
12833;DHT22;6483;51.310;4.462;2023-06-24T07:07:43;19.80;1.00
12833;DHT22;6483;51.310;4.462;2023-06-24T07:10:10;19.70;38.10
12833;DHT22;6483;51.310;4.462;2023-06-24T07:12:36;19.80;1.00
12833;DHT22;6483;51.310;4.462;2023-06-24T07:15:02;20.00;99.90
12833;DHT22;6483;51.310;4.462;2023-06-24T07:17:31;20.10;1.00
12833;DHT22;6483;51.310;4.462;2023-06-24T07:19:56;20.20;1.00
12833;DHT22;6483;51.310;4.462;2023-06-24T07:22:22;20.20;1.00
12833;DHT22;6483;51.310;4.462;2023-06-24T07:24:50;20.20;1.00
12833;DHT22;6483;51.310;4.462;2023-06-24T07:27:19;20.20;1.00
12833;DHT22;6483;51.310;4.462;2023-06-24T07:29:45;20.20;26.90
12833;DHT22;6483;51.310;4.462;2023-06-24T07:32:10;20.30;99.90
12833;DHT22;6483;51.310;4.462;2023-06-24T07:34:37;20.40;1.00
12833;DHT22;6483;51.310;4.462;2023-06-24T07:37:03;20.50;1.00
12833;DHT22;6483;51.310;4.462;2023-06-24T07:39:30;20.60;99.90
12833;DHT22;6483;51.310;4.462;2023-06-24T07:41:58;20.80;68.60
12833;DHT22;6483;51.310;4.462;2023-06-24T07:44:24;20.80;99.90
12833;DHT22;6483;51.310;4.462;2023-06-24T07:46:53;20.80;1.00
12833;DHT22;6483;51.310;4.462;2023-06-24T07:49:19;20.90;99.90
12833;DHT22;6483;51.310;4.462;2023-06-24T07:51:47;21.00;1.00
12833;DHT22;6483;51.310;4.462;2023-06-24T07:54:13;20.70;1.00
12833;DHT22;6483;51.310;4.462;2023-06-24T07:56:38;21.50;1.00
12833;DHT22;6483;51.310;4.462;2023-06-24T07:59:04;22.30;1.00
12833;DHT22;6483;51.310;4.462;2023-06-24T08:01:31;22.50;1.00
12833;DHT22;6483;51.310;4.462;2023-06-24T08:03:59;22.50;1.00
12833;DHT22;6483;51.310;4.462;2023-06-24T08:06:25;22.90;1.00
12833;DHT22;6483;51.310;4.462;2023-06-24T08:08:51;23.40;1.00
12833;DHT22;6483;51.310;4.462;2023-06-24T08:11:18;23.50;1.00
12833;DHT22;6483;51.310;4.462;2023-06-24T08:13:47;23.70;1.00
12833;DHT22;6483;51.310;4.462;2023-06-24T08:16:14;23.70;1.00
12833;DHT22;6483;51.310;4.462;2023-06-24T08:18:40;24.10;1.00
12833;DHT22;6483;51.310;4.462;2023-06-24T08:21:06;24.00;1.00
12833;DHT22;6483;51.310;4.462;2023-06-24T08:23:34;24.50;1.00
12833;DHT22;6483;51.310;4.462;2023-06-24T08:26:04;24.80;1.00
12833;DHT22;6483;51.310;4.462;2023-06-24T08:28:30;25.20;1.00
12833;DHT22;6483;51.310;4.462;2023-06-24T08:30:56;25.20;1.00
12833;DHT22;6483;51.310;4.462;2023-06-24T08:33:22;25.20;1.00
12833;DHT22;6483;51.310;4.462;2023-06-24T08:35:47;25.20;1.00
12833;DHT22;6483;51.310;4.462;2023-06-24T08:38:13;25.60;1.00
12833;DHT22;6483;51.310;4.462;2023-06-24T08:40:39;25.70;1.00
12833;DHT22;6483;51.310;4.462;2023-06-24T08:43:06;25.50;1.00
12833;DHT22;6483;51.310;4.462;2023-06-24T08:45:32;25.20;1.00
12833;DHT22;6483;51.310;4.462;2023-06-24T08:47:58;25.50;1.00
12833;DHT22;6483;51.310;4.462;2023-06-24T08:50:37;26.10;1.00
12833;DHT22;6483;51.310;4.462;2023-06-24T08:53:07;26.30;1.00
12833;DHT22;6483;51.310;4.462;2023-06-24T08:55:48;27.10;1.00
12833;DHT22;6483;51.310;4.462;2023-06-24T08:58:14;27.50;1.00
12833;DHT22;6483;51.310;4.462;2023-06-24T09:00:43;27.60;1.00
12833;DHT22;6483;51.310;4.462;2023-06-24T09:03:11;28.00;1.00
12833;DHT22;6483;51.310;4.462;2023-06-24T09:05:37;28.40;1.00
12833;DHT22;6483;51.310;4.462;2023-06-24T09:08:03;28.90;1.00
12833;DHT22;6483;51.310;4.462;2023-06-24T09:10:31;29.20;1.00
12833;DHT22;6483;51.310;4.462;2023-06-24T09:12:58;30.40;1.00
12833;DHT22;6483;51.310;4.462;2023-06-24T09:15:24;30.80;1.00
12833;DHT22;6483;51.310;4.462;2023-06-24T09:17:50;31.00;1.00
12833;DHT22;6483;51.310;4.462;2023-06-24T09:20:20;30.70;1.00
12833;DHT22;6483;51.310;4.462;2023-06-24T09:22:50;30.10;1.00
12833;DHT22;6483;51.310;4.462;2023-06-24T09:25:19;29.20;1.00
12833;DHT22;6483;51.310;4.462;2023-06-24T09:27:49;29.00;1.00
12833;DHT22;6483;51.310;4.462;2023-06-24T09:30:23;29.60;1.00
12833;DHT22;6483;51.310;4.462;2023-06-24T09:32:50;30.10;1.00
12833;DHT22;6483;51.310;4.462;2023-06-24T09:35:24;29.40;1.00
12833;DHT22;6483;51.310;4.462;2023-06-24T09:37:56;30.30;1.00
12833;DHT22;6483;51.310;4.462;2023-06-24T09:40:25;30.30;1.00
12833;DHT22;6483;51.310;4.462;2023-06-24T09:45:23;30.60;1.00
12833;DHT22;6483;51.310;4.462;2023-06-24T09:47:49;30.80;1.00
12833;DHT22;6483;51.310;4.462;2023-06-24T09:50:16;31.00;1.00
12833;DHT22;6483;51.310;4.462;2023-06-24T09:52:44;31.10;1.00
12833;DHT22;6483;51.310;4.462;2023-06-24T09:55:15;31.80;1.00
12833;DHT22;6483;51.310;4.462;2023-06-24T09:58:08;31.00;1.00
12833;DHT22;6483;51.310;4.462;2023-06-24T10:00:36;32.60;1.00
12833;DHT22;6483;51.310;4.462;2023-06-24T10:03:02;31.80;1.00
12833;DHT22;6483;51.310;4.462;2023-06-24T10:05:31;30.80;1.00
12833;DHT22;6483;51.310;4.462;2023-06-24T10:07:57;30.20;1.00
12833;DHT22;6483;51.310;4.462;2023-06-24T10:10:26;29.70;1.00
12833;DHT22;6483;51.310;4.462;2023-06-24T10:12:54;29.30;1.00
12833;DHT22;6483;51.310;4.462;2023-06-24T10:15:21;29.70;1.00
12833;DHT22;6483;51.310;4.462;2023-06-24T10:17:47;29.30;1.00
12833;DHT22;6483;51.310;4.462;2023-06-24T10:20:13;30.00;1.00
12833;DHT22;6483;51.310;4.462;2023-06-24T10:22:38;31.40;1.00
12833;DHT22;6483;51.310;4.462;2023-06-24T10:25:10;31.40;1.00
12833;DHT22;6483;51.310;4.462;2023-06-24T10:27:40;30.20;1.00
12833;DHT22;6483;51.310;4.462;2023-06-24T10:30:31;30.20;1.00
12833;DHT22;6483;51.310;4.462;2023-06-24T10:32:59;30.90;1.00
12833;DHT22;6483;51.310;4.462;2023-06-24T10:35:26;31.40;1.00
12833;DHT22;6483;51.310;4.462;2023-06-24T10:37:59;31.50;1.00
12833;DHT22;6483;51.310;4.462;2023-06-24T10:43:01;32.00;1.00
12833;DHT22;6483;51.310;4.462;2023-06-24T10:45:30;32.10;1.00
12833;DHT22;6483;51.310;4.462;2023-06-24T10:47:57;32.30;1.00
12833;DHT22;6483;51.310;4.462;2023-06-24T11:01:07;32.70;1.00
12833;DHT22;6483;51.310;4.462;2023-06-24T11:08:43;34.60;1.00
12833;DHT22;6483;51.310;4.462;2023-06-24T23:56:37;35.20;1.00
12833;DHT22;6483;51.310;4.462;2023-06-24T23:59:03;17.90;99.90
